Startpagina
METAR-TAF:

METAR-TAF

Vliegvelden :

Alice Springs, Australië

breedte: 23-48S, lengte: 133-53E, hoogte: 545 m

Actueel weer

Dit bericht is 21 minuten geleden gemaakt, om 02:00 UTC
Wind 9 kt uit het westen
Temperatuur 25°C
Vochtigheid 24%
Druk 1020 hPa
Zicht 10 km of meer
Gebroken wolken op 10000 ft
Gebroken wolken op 12000 ft

METAR: YBAS 270200Z AUTO 28009KT 9999 // BKN100 BKN120 25/03 Q1020

Tijdstip: 11:51 (02:21 UTC)

Verwachting

Dit bericht is 2 uur en het 54 minuten geleden gemaakt, om 23:27 UTC
Verwachting geldig van 27 om 00 UTC tot 27 om 24 UTC
Wind 5 kt uit het westen
Zicht 10 km of meer
geen wolken onder 1500 m en geen cumulonimbus
Van 27 om 0300 UTC
Wind 10 kt uit het zuidzuidwesten
Zicht 10 km of meer
geen wolken onder 1500 m en geen cumulonimbus
Van 27 om 1400 UTC
Wind 6 kt uit het noordnoordwesten
Zicht 10 km of meer
geen wolken onder 1500 m en geen cumulonimbus

TAF: YBAS 262327Z 2700/2724 28005KT CAVOK FM270300 21010KT CAVOK FM271400 33006KT CAVOK

Waarnemingen en weersverwachtingen van meer dan 4000 vliegvelden (METAR en TAF).

De beschikbare stations zijn de gele en rode punten op de kaart.

Ga met uw muis naar het station om de naam te zien.

Klik dan om waarnemingen en weersverwachtingen te zien.

kaart wijzigen: klik op de groene knoppen met een zwart kruis om in te zoomen, op de groene knop met een streepje om uit te zoomen of op de groene pijlen voor aangrenzende kaarten.


METAR-TAF: